createdAt,value
2017-08-19T00:02:15.570Z,33.70
2017-08-19T00:04:44.147Z,33.60
2017-08-19T00:07:12.871Z,33.60
2017-08-19T00:09:41.267Z,33.60
2017-08-19T00:12:09.821Z,33.70
2017-08-19T00:14:37.946Z,33.60
2017-08-19T00:17:06.534Z,33.50
2017-08-19T00:19:35.147Z,33.60
2017-08-19T00:22:04.007Z,33.50
2017-08-19T00:24:32.472Z,33.50
2017-08-19T00:27:01.079Z,33.50
2017-08-19T00:29:29.870Z,33.40
2017-08-19T00:31:58.514Z,33.40
2017-08-19T00:34:26.538Z,33.40
2017-08-19T00:36:55.170Z,33.40
2017-08-19T00:39:23.891Z,33.40
2017-08-19T00:41:53.064Z,33.40
2017-08-19T00:44:21.575Z,33.40
2017-08-19T00:46:50.098Z,33.40
2017-08-19T00:49:18.746Z,33.40
2017-08-19T00:51:47.605Z,33.40
2017-08-19T00:54:16.050Z,33.40
2017-08-19T00:56:45.199Z,33.40
2017-08-19T00:59:13.774Z,33.30
2017-08-19T01:01:42.490Z,33.30
2017-08-19T01:04:11.243Z,33.30
2017-08-19T01:06:39.765Z,33.30
2017-08-19T01:09:08.354Z,33.30
2017-08-19T01:11:37.038Z,33.30
2017-08-19T01:14:05.931Z,33.30
2017-08-19T01:16:34.414Z,33.30
2017-08-19T01:19:02.894Z,33.30
2017-08-19T01:21:31.715Z,33.30
2017-08-19T01:24:00.360Z,33.20
2017-08-19T01:26:52.570Z,33.20
2017-08-19T01:29:21.031Z,33.20
2017-08-19T01:31:49.603Z,33.20
2017-08-19T01:34:18.434Z,33.20
2017-08-19T01:36:46.831Z,33.20
2017-08-19T01:39:15.439Z,33.20
2017-08-19T01:41:44.146Z,33.20
2017-08-19T01:44:12.638Z,33.20
2017-08-19T01:46:41.191Z,33.20
2017-08-19T01:49:10.007Z,33.10
2017-08-19T01:51:38.759Z,33.10
2017-08-19T01:54:07.285Z,33.10
2017-08-19T01:56:35.939Z,33.10
2017-08-19T01:59:04.582Z,33.20
2017-08-19T02:01:32.987Z,33.20
2017-08-19T02:04:01.722Z,33.20
2017-08-19T02:06:30.301Z,33.20
2017-08-19T02:08:59.025Z,33.20
2017-08-19T02:11:27.510Z,33.20
2017-08-19T02:13:56.031Z,33.20
2017-08-19T02:16:24.747Z,33.20
2017-08-19T02:18:53.675Z,33.20
2017-08-19T02:21:21.698Z,33.30
2017-08-19T02:36:52.849Z,33.50
2017-08-19T02:39:20.866Z,33.60
2017-08-19T02:41:48.879Z,33.50
2017-08-19T02:44:17.719Z,33.60
2017-08-19T02:46:46.125Z,33.60
2017-08-19T02:49:14.721Z,33.70
2017-08-19T02:51:43.470Z,33.80
2017-08-19T02:54:11.871Z,33.90
2017-08-19T02:56:40.479Z,33.90
2017-08-19T02:59:08.770Z,34.00
2017-08-19T03:01:37.270Z,34.00
2017-08-19T03:04:05.298Z,34.10
2017-08-19T03:06:33.859Z,34.20
2017-08-19T03:09:02.379Z,34.40
2017-08-19T03:11:31.022Z,34.40
2017-08-19T03:13:59.956Z,34.50
2017-08-19T03:16:28.391Z,34.70
2017-08-19T03:18:57.942Z,34.90
2017-08-19T03:21:26.559Z,34.80
2017-08-19T03:23:55.018Z,34.90
2017-08-19T03:26:23.663Z,35.00
2017-08-19T03:28:51.783Z,35.10
2017-08-19T03:31:20.466Z,35.30
2017-08-19T03:33:48.498Z,35.40
2017-08-19T03:36:22.170Z,35.50
2017-08-19T03:38:50.758Z,35.60
2017-08-19T03:41:19.866Z,35.70
2017-08-19T03:43:49.927Z,35.70
2017-08-19T03:46:18.458Z,35.70
2017-08-19T03:48:46.566Z,35.90
2017-08-19T03:51:15.009Z,36.00
2017-08-19T03:53:43.558Z,36.20
2017-08-19T03:56:12.414Z,36.40
2017-08-19T03:58:40.438Z,36.50
2017-08-19T04:01:08.972Z,36.30
2017-08-19T04:03:37.863Z,36.60
2017-08-19T04:06:06.310Z,36.90
2017-08-19T04:08:34.354Z,37.10
2017-08-19T04:11:03.002Z,37.40
2017-08-19T04:13:31.734Z,37.60
2017-08-19T04:16:00.342Z,37.80
2017-08-19T04:18:28.490Z,38.00
2017-08-19T04:20:57.178Z,38.30
2017-08-19T04:23:25.794Z,38.60
2017-08-19T04:25:54.651Z,38.80
2017-08-19T04:28:23.953Z,39.30
2017-08-19T04:30:52.610Z,39.90
2017-08-19T04:33:21.142Z,41.10
2017-08-19T04:35:49.710Z,42.30
2017-08-19T04:38:18.606Z,43.30
2017-08-19T04:40:47.394Z,44.10
2017-08-19T04:43:16.072Z,44.50
2017-08-19T04:45:44.446Z,43.80
2017-08-19T04:48:13.278Z,43.20
2017-08-19T04:50:41.895Z,43.20
2017-08-19T04:53:10.299Z,42.60
2017-08-19T04:55:39.244Z,42.80
2017-08-19T04:58:07.818Z,43.20
2017-08-19T05:00:36.571Z,43.40
2017-08-19T05:03:05.149Z,43.90
2017-08-19T05:05:33.758Z,45.10
2017-08-19T05:08:02.325Z,45.50
2017-08-19T05:10:30.986Z,45.00
2017-08-19T05:12:59.026Z,45.00
2017-08-19T05:15:28.399Z,44.30
2017-08-19T05:17:56.527Z,44.30
2017-08-19T05:20:24.562Z,43.70
2017-08-19T05:22:53.064Z,43.80
2017-08-19T05:25:21.926Z,43.70
2017-08-19T05:27:50.606Z,43.80
2017-08-19T05:30:19.385Z,44.50
2017-08-19T05:32:47.962Z,44.40
2017-08-19T05:35:16.572Z,45.30
2017-08-19T05:37:45.250Z,45.90
2017-08-19T05:40:14.354Z,46.30
2017-08-19T05:42:43.132Z,46.70
2017-08-19T05:45:11.613Z,46.30
2017-08-19T05:47:40.309Z,44.80
2017-08-19T05:50:08.351Z,44.80
2017-08-19T05:52:36.969Z,45.00
2017-08-19T05:55:05.783Z,45.30
2017-08-19T05:57:34.435Z,44.20
2017-08-19T06:00:02.859Z,44.40
2017-08-19T06:02:31.614Z,44.00
2017-08-19T06:05:00.262Z,43.20
2017-08-19T06:07:28.667Z,43.60
2017-08-19T06:09:56.780Z,43.90
2017-08-19T06:12:25.223Z,43.70
2017-08-19T06:14:53.263Z,43.60
2017-08-19T06:17:21.894Z,44.90
2017-08-19T06:19:50.410Z,45.80
2017-08-19T06:22:19.058Z,45.70
2017-08-19T06:24:47.915Z,46.60
2017-08-19T06:27:16.323Z,45.80
2017-08-19T06:29:44.930Z,46.70
2017-08-19T06:32:13.707Z,46.10
2017-08-19T06:34:42.386Z,45.90
2017-08-19T06:37:10.915Z,45.30
2017-08-19T06:39:40.822Z,45.10
2017-08-19T06:42:08.846Z,45.10
2017-08-19T06:44:37.459Z,45.20
2017-08-19T06:47:06.386Z,44.50
2017-08-19T06:49:35.655Z,43.80
2017-08-19T06:52:04.238Z,43.80
2017-08-19T06:54:33.082Z,43.60
2017-08-19T06:57:01.799Z,43.60
2017-08-19T06:59:31.314Z,43.60
2017-08-19T07:02:00.279Z,43.60
2017-08-19T07:04:28.679Z,42.90
2017-08-19T07:06:57.282Z,43.40
2017-08-19T07:09:26.095Z,43.50
2017-08-19T07:11:54.818Z,43.60
2017-08-19T07:14:23.532Z,43.00
2017-08-19T07:16:52.193Z,43.10
2017-08-19T07:19:20.719Z,43.10
2017-08-19T07:21:49.398Z,43.40
2017-08-19T07:24:18.290Z,44.00
2017-08-19T07:26:47.071Z,44.80
2017-08-19T07:29:15.594Z,45.30
2017-08-19T07:31:44.358Z,45.10
2017-08-19T07:34:12.966Z,45.50
2017-08-19T07:36:41.614Z,45.70
2017-08-19T07:39:09.762Z,45.30
2017-08-19T07:41:38.722Z,45.50
2017-08-19T07:44:07.442Z,44.90
2017-08-19T07:46:35.927Z,44.20
2017-08-19T07:49:04.380Z,44.00
2017-08-19T07:51:32.930Z,43.60
2017-08-19T07:54:01.139Z,43.40
2017-08-19T07:56:29.184Z,43.40
2017-08-19T07:58:57.665Z,42.90
2017-08-19T08:01:26.464Z,42.70
2017-08-19T08:03:55.199Z,42.60
2017-08-19T08:06:23.254Z,42.40
2017-08-19T08:08:51.368Z,42.30
2017-08-19T08:11:19.431Z,42.20
2017-08-19T08:13:47.870Z,42.00
2017-08-19T08:16:15.986Z,42.20
2017-08-19T08:18:44.019Z,42.20
2017-08-19T08:21:12.040Z,42.20
2017-08-19T08:23:40.786Z,42.00
2017-08-19T08:26:09.874Z,42.00
2017-08-19T08:28:38.353Z,42.00
2017-08-19T08:31:07.325Z,41.90
2017-08-19T08:33:35.344Z,41.80
2017-08-19T08:36:04.570Z,41.70
2017-08-19T08:38:33.282Z,41.70
2017-08-19T08:41:01.890Z,41.70
2017-08-19T08:43:30.010Z,41.80
2017-08-19T08:45:58.654Z,41.60
2017-08-19T08:48:27.271Z,41.60
2017-08-19T08:50:55.702Z,41.60
2017-08-19T08:53:24.482Z,41.60
2017-08-19T08:55:53.198Z,41.40
2017-08-19T08:58:21.843Z,41.40
2017-08-19T09:00:50.414Z,41.50
2017-08-19T09:03:19.059Z,41.40
2017-08-19T09:05:47.570Z,41.30
2017-08-19T09:08:16.098Z,41.40
2017-08-19T09:10:44.678Z,41.30
2017-08-19T09:13:13.118Z,41.30
2017-08-19T09:15:42.040Z,41.40
2017-08-19T09:18:10.071Z,41.20
2017-08-19T09:20:38.102Z,41.30
2017-08-19T09:23:06.826Z,41.40
2017-08-19T09:25:35.965Z,41.20
2017-08-19T09:28:04.571Z,41.20
2017-08-19T09:30:33.698Z,41.30
2017-08-19T09:33:02.372Z,41.20
2017-08-19T09:35:30.435Z,41.10
2017-08-19T09:37:59.580Z,41.10
2017-08-19T09:40:28.271Z,41.00
2017-08-19T09:42:57.514Z,40.80
2017-08-19T09:45:26.330Z,40.70
2017-08-19T09:47:55.251Z,40.70
2017-08-19T09:50:23.291Z,40.40
2017-08-19T09:52:52.258Z,40.40
2017-08-19T09:55:20.274Z,40.50
2017-08-19T09:57:49.695Z,40.60
2017-08-19T10:00:17.915Z,40.60
2017-08-19T10:02:46.522Z,40.40
2017-08-19T10:05:14.575Z,40.60
2017-08-19T10:07:43.461Z,40.60
2017-08-19T10:23:36.575Z,40.20
2017-08-19T10:26:05.103Z,40.20
2017-08-19T10:28:33.130Z,40.20
2017-08-19T10:31:01.858Z,40.10
2017-08-19T10:33:30.492Z,40.20
2017-08-19T10:35:59.755Z,40.10
2017-08-19T10:38:28.562Z,40.10
2017-08-19T10:40:57.315Z,40.00
2017-08-19T10:43:26.039Z,40.00
2017-08-19T10:45:54.730Z,39.90
2017-08-19T10:48:23.390Z,39.70
2017-08-19T10:50:52.135Z,40.00
2017-08-19T10:53:20.663Z,39.90
2017-08-19T10:55:49.175Z,39.90
2017-08-19T10:58:18.342Z,40.10
2017-08-19T11:00:47.054Z,40.10
2017-08-19T11:03:16.251Z,40.30
2017-08-19T11:05:44.918Z,40.30
2017-08-19T11:08:13.692Z,40.20
2017-08-19T11:10:42.114Z,40.00
2017-08-19T11:13:10.167Z,39.90
2017-08-19T11:15:38.738Z,39.80
2017-08-19T11:18:07.354Z,39.70
2017-08-19T11:20:36.000Z,39.60
2017-08-19T11:23:04.665Z,39.60
2017-08-19T11:25:33.186Z,39.70
2017-08-19T11:28:01.930Z,39.70
2017-08-19T11:30:30.622Z,39.60
2017-08-19T11:32:59.038Z,39.50
2017-08-19T11:35:27.058Z,39.40
2017-08-19T11:37:56.618Z,39.30
2017-08-19T11:40:25.162Z,39.20
2017-08-19T11:42:53.275Z,39.40
2017-08-19T11:45:21.627Z,39.30
2017-08-19T11:47:50.170Z,39.30
2017-08-19T11:50:18.749Z,39.30
2017-08-19T11:52:47.602Z,39.20
2017-08-19T11:55:15.614Z,39.30
2017-08-19T11:57:44.270Z,39.20
2017-08-19T12:00:13.162Z,39.10
2017-08-19T12:02:41.839Z,39.00
2017-08-19T12:05:09.878Z,38.80
2017-08-19T12:07:39.382Z,38.60
2017-08-19T12:10:08.613Z,38.50
2017-08-19T12:12:37.218Z,38.50
2017-08-19T12:15:05.931Z,38.50
2017-08-19T12:17:34.651Z,38.50
2017-08-19T12:20:03.050Z,38.50
2017-08-19T12:22:31.790Z,38.50
2017-08-19T12:25:00.371Z,38.50
2017-08-19T12:27:29.122Z,38.50
2017-08-19T12:29:57.698Z,38.50
2017-08-19T12:32:26.330Z,38.60
2017-08-19T12:34:55.050Z,38.50
2017-08-19T12:37:23.579Z,38.40
2017-08-19T12:39:52.158Z,38.40
2017-08-19T12:42:20.775Z,38.40
2017-08-19T12:44:48.946Z,38.40
2017-08-19T12:47:17.262Z,38.30
2017-08-19T12:49:45.270Z,38.20
2017-08-19T12:52:14.062Z,38.10
2017-08-19T12:54:42.692Z,38.20
2017-08-19T12:57:12.102Z,38.50
2017-08-19T12:59:41.518Z,38.40
2017-08-19T13:02:10.038Z,38.40
2017-08-19T13:04:38.731Z,38.20
2017-08-19T13:07:07.479Z,38.20
2017-08-19T13:09:35.870Z,38.20
2017-08-19T13:12:04.478Z,38.20
2017-08-19T13:14:33.375Z,38.10
2017-08-19T13:17:02.150Z,38.20
2017-08-19T13:19:30.690Z,38.10
2017-08-19T13:22:00.313Z,38.00
2017-08-19T13:24:29.657Z,38.00
2017-08-19T13:26:58.346Z,38.00
2017-08-19T13:29:27.438Z,38.00
2017-08-19T13:31:56.019Z,38.00
2017-08-19T13:34:24.488Z,37.80
2017-08-19T13:36:53.121Z,37.80
2017-08-19T13:39:21.847Z,37.80
2017-08-19T13:41:50.467Z,37.70
2017-08-19T13:44:20.108Z,37.70
2017-08-19T13:46:48.133Z,37.60
2017-08-19T13:49:17.042Z,37.60
2017-08-19T13:51:45.790Z,37.50
2017-08-19T13:54:14.138Z,37.70
2017-08-19T13:56:42.694Z,37.60
2017-08-19T13:59:11.581Z,37.60
2017-08-19T14:01:39.601Z,37.40
2017-08-19T14:04:08.786Z,37.40
2017-08-19T14:06:37.448Z,37.40
2017-08-19T14:09:06.126Z,37.40
2017-08-19T14:11:34.882Z,37.30
2017-08-19T14:14:03.815Z,37.20
2017-08-19T14:16:32.384Z,37.20
2017-08-19T14:19:00.983Z,37.20
2017-08-19T14:21:29.694Z,37.10
2017-08-19T14:23:58.344Z,37.10
2017-08-19T14:26:26.871Z,37.00
2017-08-19T14:28:55.058Z,36.90
2017-08-19T14:31:24.349Z,36.80
2017-08-19T14:33:52.395Z,36.80
2017-08-19T14:36:21.078Z,36.80
2017-08-19T14:38:49.659Z,36.80
2017-08-19T14:41:18.444Z,36.70
2017-08-19T14:43:47.283Z,36.60
2017-08-19T14:46:16.642Z,36.50
2017-08-19T14:48:45.321Z,36.50
2017-08-19T14:51:14.360Z,36.50
2017-08-19T14:53:43.694Z,36.40
2017-08-19T14:56:11.702Z,36.30
2017-08-19T14:58:39.997Z,36.40
2017-08-19T15:01:08.496Z,36.40
2017-08-19T15:03:36.974Z,36.30
2017-08-19T15:06:05.260Z,36.30
2017-08-19T15:08:34.408Z,36.30
2017-08-19T15:11:02.594Z,36.30
2017-08-19T15:13:31.518Z,36.40
2017-08-19T15:16:00.235Z,36.30
2017-08-19T15:18:28.259Z,36.30
2017-08-19T15:20:57.166Z,36.30
2017-08-19T15:23:26.999Z,36.30
2017-08-19T15:25:55.038Z,36.20
2017-08-19T15:28:23.589Z,36.30
2017-08-19T15:30:52.194Z,36.20
2017-08-19T15:33:20.807Z,36.20
2017-08-19T15:35:49.118Z,36.20
2017-08-19T15:38:17.179Z,36.20
2017-08-19T15:40:45.204Z,36.20
2017-08-19T15:43:13.998Z,36.10
2017-08-19T15:45:42.642Z,36.10
2017-08-19T15:48:24.518Z,36.00
2017-08-19T17:58:06.802Z,35.50
2017-08-19T18:00:35.719Z,35.50
2017-08-19T18:03:04.438Z,35.50
2017-08-19T18:05:32.961Z,35.50
2017-08-19T18:08:01.646Z,35.50
2017-08-19T18:10:30.262Z,35.50
2017-08-19T18:12:59.330Z,35.50
2017-08-19T18:15:28.007Z,35.50
2017-08-19T18:17:56.431Z,35.40
2017-08-19T18:20:25.705Z,35.40
2017-08-19T18:22:54.295Z,35.30
2017-08-19T18:25:22.907Z,35.20
2017-08-19T18:27:51.830Z,35.20
2017-08-19T18:30:20.233Z,35.30
2017-08-19T18:32:48.734Z,35.20
2017-08-19T18:35:17.546Z,35.20
2017-08-19T18:37:46.267Z,35.20
2017-08-19T18:40:14.702Z,35.10
2017-08-19T18:42:43.479Z,35.10
2017-08-19T18:45:12.090Z,35.10
2017-08-19T18:47:40.815Z,35.10
2017-08-19T18:50:09.013Z,35.10
2017-08-19T18:52:37.042Z,35.10
2017-08-19T18:55:06.462Z,35.10
2017-08-19T18:57:34.973Z,35.10
2017-08-19T19:00:03.611Z,35.00
2017-08-19T19:02:32.752Z,34.90
2017-08-19T19:05:01.132Z,34.90
2017-08-19T19:07:29.903Z,34.90
2017-08-19T19:09:58.298Z,34.80
2017-08-19T19:12:27.105Z,34.80
2017-08-19T19:14:55.723Z,34.80
2017-08-19T19:17:24.442Z,34.80
2017-08-19T19:19:53.130Z,34.80
2017-08-19T19:22:21.154Z,34.80
2017-08-19T19:24:49.191Z,34.80
2017-08-19T19:27:18.107Z,34.70
2017-08-19T19:29:46.791Z,34.70
2017-08-19T19:32:15.571Z,34.70
2017-08-19T19:34:44.230Z,34.70
2017-08-19T19:37:12.763Z,34.70
2017-08-19T19:39:41.439Z,34.70
2017-08-19T19:42:10.291Z,34.70
2017-08-19T19:44:38.696Z,34.70
2017-08-19T19:47:07.124Z,34.70
2017-08-19T20:02:26.418Z,34.90
2017-08-19T20:04:54.939Z,34.80
2017-08-19T20:07:23.622Z,34.70
2017-08-19T20:09:52.475Z,34.60
2017-08-19T20:12:20.879Z,34.60
2017-08-19T20:14:49.486Z,34.60
2017-08-19T20:17:18.300Z,34.50
2017-08-19T20:19:46.923Z,34.50
2017-08-19T20:22:15.319Z,34.60
2017-08-19T20:24:44.034Z,34.60
2017-08-19T20:27:12.638Z,34.50
2017-08-19T20:29:41.070Z,34.50
2017-08-19T20:32:09.782Z,34.50
2017-08-19T20:34:37.807Z,34.50
2017-08-19T20:37:07.277Z,34.60
2017-08-19T20:39:36.110Z,34.50
2017-08-19T20:42:04.507Z,34.50
2017-08-19T20:44:33.118Z,34.60
2017-08-19T20:47:01.833Z,34.50
2017-08-19T20:49:30.550Z,34.60
2017-08-19T20:51:58.950Z,34.60
2017-08-19T20:54:27.102Z,34.50
2017-08-19T20:56:55.619Z,34.60
2017-08-19T20:59:24.215Z,34.60
2017-08-19T21:01:53.035Z,34.60
2017-08-19T21:04:21.478Z,34.50
2017-08-19T21:06:50.074Z,34.50
2017-08-19T21:09:18.786Z,34.50
2017-08-19T21:11:47.507Z,34.50
2017-08-19T21:14:16.032Z,34.50
2017-08-19T21:16:45.026Z,34.50
2017-08-19T21:19:13.610Z,34.50
2017-08-19T21:21:42.359Z,34.50
2017-08-19T21:24:10.882Z,34.50
2017-08-19T21:26:39.467Z,34.50
2017-08-19T21:29:08.082Z,34.50
2017-08-19T21:31:37.010Z,34.50
2017-08-19T21:34:05.628Z,34.50
2017-08-19T21:36:35.139Z,34.50
2017-08-19T21:39:03.885Z,34.50
2017-08-19T21:41:31.907Z,34.50
2017-08-19T21:44:00.583Z,34.50
2017-08-19T21:46:28.702Z,34.50
2017-08-19T21:48:57.840Z,34.50
2017-08-19T21:51:26.448Z,34.50
2017-08-19T21:53:55.342Z,34.50
2017-08-19T21:56:24.018Z,34.50
2017-08-19T21:58:52.806Z,34.50
2017-08-19T22:01:22.559Z,34.50
2017-08-19T22:03:51.170Z,34.50
2017-08-19T22:06:19.572Z,34.50
2017-08-19T22:08:47.690Z,34.50
2017-08-19T22:11:16.122Z,34.50
2017-08-19T22:13:44.642Z,34.50
2017-08-19T22:16:13.518Z,34.40
2017-08-19T22:18:41.559Z,34.40
2017-08-19T22:21:10.126Z,34.30
2017-08-19T22:23:39.615Z,34.40
2017-08-19T22:26:08.195Z,34.30
2017-08-19T22:28:37.063Z,34.40
2017-08-19T22:31:05.610Z,34.30
2017-08-19T22:33:34.126Z,34.30
2017-08-19T22:36:02.738Z,34.30
2017-08-19T22:38:31.561Z,34.30
2017-08-19T22:41:00.014Z,34.30
2017-08-19T22:43:28.594Z,34.20
2017-08-19T22:45:57.358Z,34.20
2017-08-19T22:48:25.410Z,34.10
2017-08-19T22:50:54.042Z,34.10
2017-08-19T22:53:23.010Z,34.10
2017-08-19T22:55:51.034Z,34.10
2017-08-19T22:58:20.265Z,34.10
2017-08-19T23:00:49.075Z,34.00
2017-08-19T23:03:17.966Z,34.00
2017-08-19T23:05:46.579Z,34.00
2017-08-19T23:08:15.182Z,34.00
2017-08-19T23:10:44.598Z,34.00
2017-08-19T23:13:13.054Z,34.00
2017-08-19T23:15:41.715Z,34.00
2017-08-19T23:18:10.395Z,34.00
2017-08-19T23:20:39.173Z,34.00
2017-08-19T23:23:07.835Z,34.00
2017-08-19T23:25:36.370Z,33.90
2017-08-19T23:28:05.038Z,33.90
2017-08-19T23:30:33.995Z,33.90
2017-08-19T23:33:02.390Z,33.90
2017-08-19T23:35:31.008Z,33.90
2017-08-19T23:37:59.819Z,33.90
2017-08-19T23:40:28.474Z,33.80
2017-08-19T23:42:57.256Z,33.80
2017-08-19T23:45:25.358Z,33.80
2017-08-19T23:47:53.374Z,33.80
2017-08-19T23:50:21.900Z,33.70
2017-08-19T23:52:50.690Z,33.70
2017-08-19T23:55:19.434Z,33.70
2017-08-19T23:57:47.831Z,33.70
